sensor_id;sensor_type;location;lat;lon;timestamp;P1;durP1;ratioP1;P2;durP2;ratioP2
16870;SDS011;8552;48.120;-1.456;2022-12-18T00:02:13;46.67;;;20.30;;
16870;SDS011;8552;48.120;-1.456;2022-12-18T00:04:39;40.37;;;19.57;;
16870;SDS011;8552;48.120;-1.456;2022-12-18T00:07:05;42.37;;;18.77;;
16870;SDS011;8552;48.120;-1.456;2022-12-18T00:09:32;42.43;;;20.30;;
16870;SDS011;8552;48.120;-1.456;2022-12-18T00:11:58;41.40;;;20.27;;
16870;SDS011;8552;48.120;-1.456;2022-12-18T00:14:24;39.67;;;20.23;;
16870;SDS011;8552;48.120;-1.456;2022-12-18T00:16:50;42.50;;;20.33;;
16870;SDS011;8552;48.120;-1.456;2022-12-18T00:19:16;43.77;;;20.23;;
16870;SDS011;8552;48.120;-1.456;2022-12-18T00:21:42;46.03;;;20.83;;
16870;SDS011;8552;48.120;-1.456;2022-12-18T00:24:08;37.90;;;18.30;;
16870;SDS011;8552;48.120;-1.456;2022-12-18T00:26:35;45.20;;;19.10;;
16870;SDS011;8552;48.120;-1.456;2022-12-18T00:29:11;38.43;;;19.57;;
16870;SDS011;8552;48.120;-1.456;2022-12-18T00:31:38;40.93;;;20.07;;
16870;SDS011;8552;48.120;-1.456;2022-12-18T00:34:05;40.33;;;19.47;;
16870;SDS011;8552;48.120;-1.456;2022-12-18T00:36:32;41.30;;;18.37;;
16870;SDS011;8552;48.120;-1.456;2022-12-18T00:38:59;39.03;;;18.20;;
16870;SDS011;8552;48.120;-1.456;2022-12-18T00:41:25;43.17;;;20.23;;
16870;SDS011;8552;48.120;-1.456;2022-12-18T00:44:11;41.73;;;19.53;;
16870;SDS011;8552;48.120;-1.456;2022-12-18T00:46:37;42.87;;;21.00;;
16870;SDS011;8552;48.120;-1.456;2022-12-18T00:49:03;39.13;;;19.30;;
16870;SDS011;8552;48.120;-1.456;2022-12-18T00:51:29;39.80;;;19.60;;
16870;SDS011;8552;48.120;-1.456;2022-12-18T00:53:56;39.10;;;19.80;;
16870;SDS011;8552;48.120;-1.456;2022-12-18T00:56:22;42.83;;;20.17;;
16870;SDS011;8552;48.120;-1.456;2022-12-18T00:58:48;36.47;;;18.60;;
16870;SDS011;8552;48.120;-1.456;2022-12-18T01:01:14;44.43;;;19.90;;
16870;SDS011;8552;48.120;-1.456;2022-12-18T01:03:40;36.77;;;17.87;;
16870;SDS011;8552;48.120;-1.456;2022-12-18T01:06:07;36.57;;;19.77;;
16870;SDS011;8552;48.120;-1.456;2022-12-18T01:08:33;37.03;;;19.20;;
16870;SDS011;8552;48.120;-1.456;2022-12-18T01:10:59;40.17;;;20.53;;
16870;SDS011;8552;48.120;-1.456;2022-12-18T01:13:25;47.67;;;21.77;;
16870;SDS011;8552;48.120;-1.456;2022-12-18T01:15:51;39.10;;;20.17;;
16870;SDS011;8552;48.120;-1.456;2022-12-18T01:18:17;43.50;;;22.10;;
16870;SDS011;8552;48.120;-1.456;2022-12-18T01:20:43;38.23;;;19.20;;
16870;SDS011;8552;48.120;-1.456;2022-12-18T01:23:09;41.93;;;18.77;;
16870;SDS011;8552;48.120;-1.456;2022-12-18T01:25:36;42.27;;;19.50;;
16870;SDS011;8552;48.120;-1.456;2022-12-18T01:28:02;43.33;;;20.07;;
16870;SDS011;8552;48.120;-1.456;2022-12-18T01:30:28;51.40;;;23.43;;
16870;SDS011;8552;48.120;-1.456;2022-12-18T01:32:54;40.93;;;19.20;;
16870;SDS011;8552;48.120;-1.456;2022-12-18T01:35:20;47.53;;;20.27;;
16870;SDS011;8552;48.120;-1.456;2022-12-18T01:37:47;39.53;;;20.70;;
16870;SDS011;8552;48.120;-1.456;2022-12-18T01:40:13;39.67;;;20.00;;
16870;SDS011;8552;48.120;-1.456;2022-12-18T01:42:39;38.67;;;19.73;;
16870;SDS011;8552;48.120;-1.456;2022-12-18T01:45:06;35.77;;;18.97;;
16870;SDS011;8552;48.120;-1.456;2022-12-18T01:47:41;43.03;;;19.77;;
16870;SDS011;8552;48.120;-1.456;2022-12-18T01:50:16;42.87;;;18.93;;
16870;SDS011;8552;48.120;-1.456;2022-12-18T01:52:43;39.37;;;20.50;;
16870;SDS011;8552;48.120;-1.456;2022-12-18T01:55:11;34.07;;;17.67;;
16870;SDS011;8552;48.120;-1.456;2022-12-18T01:57:37;39.83;;;19.33;;
16870;SDS011;8552;48.120;-1.456;2022-12-18T02:00:06;39.03;;;18.63;;
16870;SDS011;8552;48.120;-1.456;2022-12-18T02:02:33;36.63;;;18.93;;
16870;SDS011;8552;48.120;-1.456;2022-12-18T02:04:59;36.03;;;18.00;;
16870;SDS011;8552;48.120;-1.456;2022-12-18T02:07:29;35.23;;;17.97;;
16870;SDS011;8552;48.120;-1.456;2022-12-18T02:10:06;34.03;;;17.93;;
16870;SDS011;8552;48.120;-1.456;2022-12-18T02:12:37;40.10;;;19.50;;
16870;SDS011;8552;48.120;-1.456;2022-12-18T02:17:42;39.87;;;19.30;;
16870;SDS011;8552;48.120;-1.456;2022-12-18T02:27:33;37.97;;;18.07;;
16870;SDS011;8552;48.120;-1.456;2022-12-18T02:29:59;37.27;;;18.73;;
16870;SDS011;8552;48.120;-1.456;2022-12-18T02:32:37;36.93;;;18.93;;
16870;SDS011;8552;48.120;-1.456;2022-12-18T02:35:04;37.10;;;17.47;;
16870;SDS011;8552;48.120;-1.456;2022-12-18T02:37:31;36.70;;;17.83;;
16870;SDS011;8552;48.120;-1.456;2022-12-18T02:39:58;42.50;;;19.37;;
16870;SDS011;8552;48.120;-1.456;2022-12-18T02:42:24;39.20;;;18.50;;
16870;SDS011;8552;48.120;-1.456;2022-12-18T02:44:51;38.53;;;18.10;;
16870;SDS011;8552;48.120;-1.456;2022-12-18T02:47:19;40.17;;;18.87;;
16870;SDS011;8552;48.120;-1.456;2022-12-18T02:49:53;42.47;;;19.53;;
16870;SDS011;8552;48.120;-1.456;2022-12-18T02:52:29;44.87;;;20.10;;
16870;SDS011;8552;48.120;-1.456;2022-12-18T03:08:05;36.40;;;18.27;;
16870;SDS011;8552;48.120;-1.456;2022-12-18T03:10:32;38.87;;;16.83;;
16870;SDS011;8552;48.120;-1.456;2022-12-18T03:13:07;32.63;;;17.67;;
16870;SDS011;8552;48.120;-1.456;2022-12-18T03:15:35;41.00;;;20.10;;
16870;SDS011;8552;48.120;-1.456;2022-12-18T03:18:04;38.97;;;20.63;;
16870;SDS011;8552;48.120;-1.456;2022-12-18T03:20:31;38.77;;;18.70;;
16870;SDS011;8552;48.120;-1.456;2022-12-18T03:22:59;37.90;;;18.93;;
16870;SDS011;8552;48.120;-1.456;2022-12-18T03:25:28;36.33;;;18.30;;
16870;SDS011;8552;48.120;-1.456;2022-12-18T03:27:56;38.00;;;18.73;;
16870;SDS011;8552;48.120;-1.456;2022-12-18T03:30:24;38.10;;;18.57;;
16870;SDS011;8552;48.120;-1.456;2022-12-18T03:32:53;38.47;;;17.87;;
16870;SDS011;8552;48.120;-1.456;2022-12-18T03:35:23;34.37;;;18.83;;
16870;SDS011;8552;48.120;-1.456;2022-12-18T03:37:52;39.67;;;19.73;;
16870;SDS011;8552;48.120;-1.456;2022-12-18T03:40:19;34.27;;;18.00;;
16870;SDS011;8552;48.120;-1.456;2022-12-18T03:42:48;39.43;;;19.53;;
16870;SDS011;8552;48.120;-1.456;2022-12-18T03:45:36;35.00;;;18.47;;
16870;SDS011;8552;48.120;-1.456;2022-12-18T03:48:13;34.93;;;18.90;;
16870;SDS011;8552;48.120;-1.456;2022-12-18T03:50:46;35.23;;;18.03;;
16870;SDS011;8552;48.120;-1.456;2022-12-18T03:53:15;36.87;;;19.47;;
16870;SDS011;8552;48.120;-1.456;2022-12-18T03:55:43;36.17;;;18.43;;
16870;SDS011;8552;48.120;-1.456;2022-12-18T03:58:09;40.93;;;19.23;;
16870;SDS011;8552;48.120;-1.456;2022-12-18T04:00:37;38.20;;;18.57;;
16870;SDS011;8552;48.120;-1.456;2022-12-18T04:03:03;35.00;;;18.77;;
16870;SDS011;8552;48.120;-1.456;2022-12-18T04:05:30;45.93;;;19.77;;
16870;SDS011;8552;48.120;-1.456;2022-12-18T04:07:57;34.93;;;17.33;;
16870;SDS011;8552;48.120;-1.456;2022-12-18T04:10:23;39.60;;;19.47;;
16870;SDS011;8552;48.120;-1.456;2022-12-18T04:12:49;33.43;;;18.30;;
16870;SDS011;8552;48.120;-1.456;2022-12-18T04:15:15;35.60;;;18.87;;
16870;SDS011;8552;48.120;-1.456;2022-12-18T04:17:51;36.37;;;17.80;;
16870;SDS011;8552;48.120;-1.456;2022-12-18T04:20:17;33.93;;;17.17;;
16870;SDS011;8552;48.120;-1.456;2022-12-18T04:22:43;36.33;;;17.67;;
16870;SDS011;8552;48.120;-1.456;2022-12-18T04:25:09;34.57;;;18.33;;
16870;SDS011;8552;48.120;-1.456;2022-12-18T04:27:35;37.60;;;18.73;;
16870;SDS011;8552;48.120;-1.456;2022-12-18T04:30:01;36.83;;;19.03;;
16870;SDS011;8552;48.120;-1.456;2022-12-18T04:32:27;34.17;;;17.77;;
16870;SDS011;8552;48.120;-1.456;2022-12-18T04:34:53;36.23;;;18.17;;
16870;SDS011;8552;48.120;-1.456;2022-12-18T04:37:19;37.80;;;18.77;;
16870;SDS011;8552;48.120;-1.456;2022-12-18T04:39:46;30.43;;;16.80;;
16870;SDS011;8552;48.120;-1.456;2022-12-18T04:42:12;35.07;;;18.20;;
16870;SDS011;8552;48.120;-1.456;2022-12-18T04:44:38;40.13;;;18.53;;
16870;SDS011;8552;48.120;-1.456;2022-12-18T04:47:04;35.97;;;20.20;;
16870;SDS011;8552;48.120;-1.456;2022-12-18T04:49:30;35.87;;;17.80;;
16870;SDS011;8552;48.120;-1.456;2022-12-18T04:51:56;33.33;;;17.60;;
16870;SDS011;8552;48.120;-1.456;2022-12-18T04:54:22;36.00;;;17.53;;
16870;SDS011;8552;48.120;-1.456;2022-12-18T04:56:49;37.63;;;19.83;;
16870;SDS011;8552;48.120;-1.456;2022-12-18T04:59:15;37.77;;;18.20;;
16870;SDS011;8552;48.120;-1.456;2022-12-18T05:01:41;32.27;;;17.00;;
16870;SDS011;8552;48.120;-1.456;2022-12-18T05:04:07;32.27;;;15.97;;
16870;SDS011;8552;48.120;-1.456;2022-12-18T05:06:33;33.90;;;17.70;;
16870;SDS011;8552;48.120;-1.456;2022-12-18T05:08:59;38.40;;;20.00;;
16870;SDS011;8552;48.120;-1.456;2022-12-18T05:11:25;38.13;;;16.70;;
16870;SDS011;8552;48.120;-1.456;2022-12-18T05:13:51;36.83;;;17.70;;
16870;SDS011;8552;48.120;-1.456;2022-12-18T05:16:17;35.27;;;18.23;;
16870;SDS011;8552;48.120;-1.456;2022-12-18T05:18:43;32.50;;;17.40;;
16870;SDS011;8552;48.120;-1.456;2022-12-18T05:21:09;30.40;;;16.47;;
16870;SDS011;8552;48.120;-1.456;2022-12-18T05:23:35;31.87;;;17.20;;
16870;SDS011;8552;48.120;-1.456;2022-12-18T05:26:03;29.50;;;16.77;;
16870;SDS011;8552;48.120;-1.456;2022-12-18T05:28:29;36.83;;;17.20;;
16870;SDS011;8552;48.120;-1.456;2022-12-18T05:30:57;35.23;;;17.57;;
16870;SDS011;8552;48.120;-1.456;2022-12-18T05:33:24;36.33;;;18.83;;
16870;SDS011;8552;48.120;-1.456;2022-12-18T05:35:50;34.13;;;17.03;;
16870;SDS011;8552;48.120;-1.456;2022-12-18T05:38:17;33.53;;;16.57;;
16870;SDS011;8552;48.120;-1.456;2022-12-18T05:40:43;34.60;;;17.60;;
16870;SDS011;8552;48.120;-1.456;2022-12-18T05:43:09;32.47;;;16.97;;
16870;SDS011;8552;48.120;-1.456;2022-12-18T05:45:38;30.57;;;16.43;;
16870;SDS011;8552;48.120;-1.456;2022-12-18T05:48:06;31.73;;;15.70;;
16870;SDS011;8552;48.120;-1.456;2022-12-18T05:50:36;32.67;;;16.17;;
16870;SDS011;8552;48.120;-1.456;2022-12-18T05:53:02;33.77;;;17.80;;
16870;SDS011;8552;48.120;-1.456;2022-12-18T05:55:29;31.40;;;16.70;;
16870;SDS011;8552;48.120;-1.456;2022-12-18T05:57:55;33.40;;;17.60;;
16870;SDS011;8552;48.120;-1.456;2022-12-18T06:00:21;40.50;;;19.47;;
16870;SDS011;8552;48.120;-1.456;2022-12-18T06:02:47;31.63;;;17.20;;
16870;SDS011;8552;48.120;-1.456;2022-12-18T06:05:13;29.10;;;16.70;;
16870;SDS011;8552;48.120;-1.456;2022-12-18T06:07:39;34.23;;;16.97;;
16870;SDS011;8552;48.120;-1.456;2022-12-18T06:10:05;35.63;;;18.07;;
16870;SDS011;8552;48.120;-1.456;2022-12-18T06:12:31;30.40;;;17.00;;
16870;SDS011;8552;48.120;-1.456;2022-12-18T06:14:58;38.93;;;17.23;;
16870;SDS011;8552;48.120;-1.456;2022-12-18T06:17:28;32.63;;;17.83;;
16870;SDS011;8552;48.120;-1.456;2022-12-18T06:19:54;34.07;;;17.10;;
16870;SDS011;8552;48.120;-1.456;2022-12-18T06:22:20;31.57;;;17.30;;
16870;SDS011;8552;48.120;-1.456;2022-12-18T06:24:47;32.60;;;18.67;;
16870;SDS011;8552;48.120;-1.456;2022-12-18T06:27:13;36.50;;;18.50;;
16870;SDS011;8552;48.120;-1.456;2022-12-18T06:29:39;35.30;;;17.53;;
16870;SDS011;8552;48.120;-1.456;2022-12-18T06:32:05;35.03;;;17.80;;
16870;SDS011;8552;48.120;-1.456;2022-12-18T06:34:31;37.37;;;18.93;;
16870;SDS011;8552;48.120;-1.456;2022-12-18T06:36:57;32.17;;;17.57;;
16870;SDS011;8552;48.120;-1.456;2022-12-18T06:39:23;30.57;;;16.73;;
16870;SDS011;8552;48.120;-1.456;2022-12-18T06:41:50;31.90;;;16.93;;
16870;SDS011;8552;48.120;-1.456;2022-12-18T06:44:16;36.43;;;18.23;;
16870;SDS011;8552;48.120;-1.456;2022-12-18T06:46:42;32.33;;;16.07;;
16870;SDS011;8552;48.120;-1.456;2022-12-18T06:49:08;33.10;;;18.27;;
16870;SDS011;8552;48.120;-1.456;2022-12-18T06:51:34;37.20;;;19.77;;
16870;SDS011;8552;48.120;-1.456;2022-12-18T06:54:00;36.50;;;18.00;;
16870;SDS011;8552;48.120;-1.456;2022-12-18T06:56:27;34.00;;;18.13;;
16870;SDS011;8552;48.120;-1.456;2022-12-18T06:58:53;34.43;;;18.43;;
16870;SDS011;8552;48.120;-1.456;2022-12-18T07:01:20;30.30;;;17.23;;
16870;SDS011;8552;48.120;-1.456;2022-12-18T07:03:46;34.33;;;18.50;;
16870;SDS011;8552;48.120;-1.456;2022-12-18T07:06:16;32.63;;;16.60;;
16870;SDS011;8552;48.120;-1.456;2022-12-18T07:08:43;32.63;;;17.90;;
16870;SDS011;8552;48.120;-1.456;2022-12-18T07:11:09;34.43;;;17.63;;
16870;SDS011;8552;48.120;-1.456;2022-12-18T07:13:35;39.03;;;18.97;;
16870;SDS011;8552;48.120;-1.456;2022-12-18T07:16:08;30.93;;;17.07;;
16870;SDS011;8552;48.120;-1.456;2022-12-18T07:18:35;37.33;;;19.63;;
16870;SDS011;8552;48.120;-1.456;2022-12-18T07:21:08;32.17;;;17.60;;
16870;SDS011;8552;48.120;-1.456;2022-12-18T07:23:34;37.97;;;19.17;;
16870;SDS011;8552;48.120;-1.456;2022-12-18T07:26:04;35.90;;;18.43;;
16870;SDS011;8552;48.120;-1.456;2022-12-18T07:28:31;34.00;;;17.83;;
16870;SDS011;8552;48.120;-1.456;2022-12-18T07:30:58;35.53;;;20.23;;
16870;SDS011;8552;48.120;-1.456;2022-12-18T07:33:24;38.70;;;20.53;;
16870;SDS011;8552;48.120;-1.456;2022-12-18T07:35:50;33.73;;;19.10;;
16870;SDS011;8552;48.120;-1.456;2022-12-18T07:38:16;33.27;;;18.40;;
16870;SDS011;8552;48.120;-1.456;2022-12-18T07:40:42;36.83;;;18.53;;
16870;SDS011;8552;48.120;-1.456;2022-12-18T07:43:09;39.43;;;20.33;;
16870;SDS011;8552;48.120;-1.456;2022-12-18T07:45:35;40.57;;;22.43;;
16870;SDS011;8552;48.120;-1.456;2022-12-18T07:48:01;39.53;;;21.40;;
16870;SDS011;8552;48.120;-1.456;2022-12-18T07:50:27;35.03;;;18.70;;
16870;SDS011;8552;48.120;-1.456;2022-12-18T07:52:53;32.37;;;17.50;;
16870;SDS011;8552;48.120;-1.456;2022-12-18T07:55:19;36.53;;;19.50;;
16870;SDS011;8552;48.120;-1.456;2022-12-18T07:57:45;40.43;;;19.80;;
16870;SDS011;8552;48.120;-1.456;2022-12-18T08:00:11;47.47;;;25.83;;
16870;SDS011;8552;48.120;-1.456;2022-12-18T08:02:37;55.90;;;35.13;;
16870;SDS011;8552;48.120;-1.456;2022-12-18T08:05:03;39.73;;;21.23;;
16870;SDS011;8552;48.120;-1.456;2022-12-18T08:07:30;38.93;;;21.90;;
16870;SDS011;8552;48.120;-1.456;2022-12-18T08:09:56;44.43;;;24.40;;
16870;SDS011;8552;48.120;-1.456;2022-12-18T08:12:22;42.70;;;24.23;;
16870;SDS011;8552;48.120;-1.456;2022-12-18T08:14:48;50.67;;;27.80;;
16870;SDS011;8552;48.120;-1.456;2022-12-18T08:17:14;48.63;;;25.87;;
16870;SDS011;8552;48.120;-1.456;2022-12-18T08:19:40;40.40;;;22.53;;
16870;SDS011;8552;48.120;-1.456;2022-12-18T08:22:06;42.70;;;20.90;;
16870;SDS011;8552;48.120;-1.456;2022-12-18T08:24:32;36.30;;;19.13;;
16870;SDS011;8552;48.120;-1.456;2022-12-18T08:26:58;38.80;;;20.73;;
16870;SDS011;8552;48.120;-1.456;2022-12-18T08:29:24;40.07;;;20.00;;
16870;SDS011;8552;48.120;-1.456;2022-12-18T08:31:50;41.70;;;21.50;;
16870;SDS011;8552;48.120;-1.456;2022-12-18T08:34:16;37.33;;;20.33;;
16870;SDS011;8552;48.120;-1.456;2022-12-18T08:36:42;41.23;;;20.63;;
16870;SDS011;8552;48.120;-1.456;2022-12-18T08:39:08;38.90;;;20.27;;
16870;SDS011;8552;48.120;-1.456;2022-12-18T08:41:35;41.20;;;20.80;;
16870;SDS011;8552;48.120;-1.456;2022-12-18T08:44:01;39.80;;;22.17;;
16870;SDS011;8552;48.120;-1.456;2022-12-18T08:46:45;42.53;;;21.70;;
16870;SDS011;8552;48.120;-1.456;2022-12-18T08:49:11;40.00;;;20.43;;
16870;SDS011;8552;48.120;-1.456;2022-12-18T08:51:38;40.57;;;22.03;;
16870;SDS011;8552;48.120;-1.456;2022-12-18T08:54:04;43.77;;;21.50;;
16870;SDS011;8552;48.120;-1.456;2022-12-18T08:56:30;41.23;;;21.90;;
16870;SDS011;8552;48.120;-1.456;2022-12-18T08:58:57;42.60;;;20.30;;
16870;SDS011;8552;48.120;-1.456;2022-12-18T09:01:23;38.27;;;21.07;;
16870;SDS011;8552;48.120;-1.456;2022-12-18T09:03:49;42.37;;;21.73;;
16870;SDS011;8552;48.120;-1.456;2022-12-18T09:06:16;46.23;;;23.30;;
16870;SDS011;8552;48.120;-1.456;2022-12-18T09:08:43;43.47;;;21.70;;
16870;SDS011;8552;48.120;-1.456;2022-12-18T09:11:19;49.03;;;26.50;;
16870;SDS011;8552;48.120;-1.456;2022-12-18T09:13:46;50.13;;;24.83;;
16870;SDS011;8552;48.120;-1.456;2022-12-18T09:16:12;44.33;;;21.57;;
16870;SDS011;8552;48.120;-1.456;2022-12-18T09:18:38;42.83;;;23.63;;
16870;SDS011;8552;48.120;-1.456;2022-12-18T09:21:14;43.00;;;22.77;;
16870;SDS011;8552;48.120;-1.456;2022-12-18T09:23:40;47.30;;;22.93;;
16870;SDS011;8552;48.120;-1.456;2022-12-18T09:26:06;40.73;;;23.33;;
16870;SDS011;8552;48.120;-1.456;2022-12-18T09:28:33;47.83;;;23.67;;
16870;SDS011;8552;48.120;-1.456;2022-12-18T09:31:03;50.00;;;22.83;;
16870;SDS011;8552;48.120;-1.456;2022-12-18T09:33:29;49.67;;;22.33;;
16870;SDS011;8552;48.120;-1.456;2022-12-18T09:35:55;45.27;;;23.83;;
16870;SDS011;8552;48.120;-1.456;2022-12-18T09:38:21;44.50;;;21.60;;
16870;SDS011;8552;48.120;-1.456;2022-12-18T09:40:49;39.43;;;22.93;;
16870;SDS011;8552;48.120;-1.456;2022-12-18T09:43:19;47.53;;;25.03;;
16870;SDS011;8552;48.120;-1.456;2022-12-18T09:45:49;51.87;;;25.13;;
16870;SDS011;8552;48.120;-1.456;2022-12-18T09:48:22;50.53;;;24.63;;
16870;SDS011;8552;48.120;-1.456;2022-12-18T09:50:49;51.87;;;24.60;;
16870;SDS011;8552;48.120;-1.456;2022-12-18T09:53:17;50.43;;;24.33;;
16870;SDS011;8552;48.120;-1.456;2022-12-18T09:55:45;54.17;;;23.47;;
16870;SDS011;8552;48.120;-1.456;2022-12-18T10:00:56;50.53;;;24.13;;
16870;SDS011;8552;48.120;-1.456;2022-12-18T10:03:22;48.27;;;23.33;;
16870;SDS011;8552;48.120;-1.456;2022-12-18T10:05:54;59.00;;;29.10;;
16870;SDS011;8552;48.120;-1.456;2022-12-18T10:13:37;46.50;;;23.30;;
16870;SDS011;8552;48.120;-1.456;2022-12-18T10:26:44;52.43;;;25.67;;
16870;SDS011;8552;48.120;-1.456;2022-12-18T10:29:11;49.70;;;24.70;;
16870;SDS011;8552;48.120;-1.456;2022-12-18T10:31:37;49.77;;;24.73;;
16870;SDS011;8552;48.120;-1.456;2022-12-18T10:34:04;53.80;;;24.93;;
16870;SDS011;8552;48.120;-1.456;2022-12-18T10:36:30;72.87;;;37.07;;
16870;SDS011;8552;48.120;-1.456;2022-12-18T10:39:15;41.63;;;22.37;;
16870;SDS011;8552;48.120;-1.456;2022-12-18T10:41:42;51.20;;;25.97;;
16870;SDS011;8552;48.120;-1.456;2022-12-18T10:44:26;59.27;;;29.40;;
16870;SDS011;8552;48.120;-1.456;2022-12-18T10:46:53;51.30;;;23.13;;
16870;SDS011;8552;48.120;-1.456;2022-12-18T10:49:26;44.47;;;24.33;;
16870;SDS011;8552;48.120;-1.456;2022-12-18T10:52:07;54.03;;;25.17;;
16870;SDS011;8552;48.120;-1.456;2022-12-18T10:54:34;49.90;;;23.87;;
16870;SDS011;8552;48.120;-1.456;2022-12-18T10:57:29;53.03;;;27.33;;
16870;SDS011;8552;48.120;-1.456;2022-12-18T10:59:56;50.43;;;23.93;;
16870;SDS011;8552;48.120;-1.456;2022-12-18T11:04:52;48.50;;;24.87;;
16870;SDS011;8552;48.120;-1.456;2022-12-18T11:07:18;51.30;;;25.00;;
16870;SDS011;8552;48.120;-1.456;2022-12-18T11:09:45;43.13;;;23.60;;
16870;SDS011;8552;48.120;-1.456;2022-12-18T11:12:28;49.00;;;24.07;;
16870;SDS011;8552;48.120;-1.456;2022-12-18T11:14:54;42.73;;;23.83;;
16870;SDS011;8552;48.120;-1.456;2022-12-18T11:17:25;47.40;;;25.37;;
16870;SDS011;8552;48.120;-1.456;2022-12-18T11:20:04;61.37;;;30.03;;
16870;SDS011;8552;48.120;-1.456;2022-12-18T11:22:32;44.07;;;24.00;;
16870;SDS011;8552;48.120;-1.456;2022-12-18T11:25:00;61.37;;;33.20;;
16870;SDS011;8552;48.120;-1.456;2022-12-18T11:27:26;44.43;;;24.73;;
16870;SDS011;8552;48.120;-1.456;2022-12-18T11:30:06;39.83;;;20.67;;
16870;SDS011;8552;48.120;-1.456;2022-12-18T11:35:01;93.20;;;46.33;;
16870;SDS011;8552;48.120;-1.456;2022-12-18T11:37:28;86.73;;;46.37;;
16870;SDS011;8552;48.120;-1.456;2022-12-18T11:44:51;59.93;;;32.57;;
16870;SDS011;8552;48.120;-1.456;2022-12-18T11:48:20;50.43;;;25.47;;
16870;SDS011;8552;48.120;-1.456;2022-12-18T11:52:58;49.40;;;26.10;;
16870;SDS011;8552;48.120;-1.456;2022-12-18T11:55:38;46.13;;;26.50;;
16870;SDS011;8552;48.120;-1.456;2022-12-18T12:08:41;51.67;;;26.87;;
16870;SDS011;8552;48.120;-1.456;2022-12-18T12:11:12;50.80;;;28.63;;
16870;SDS011;8552;48.120;-1.456;2022-12-18T12:21:24;51.93;;;27.43;;
16870;SDS011;8552;48.120;-1.456;2022-12-18T12:38:56;51.80;;;28.60;;
16870;SDS011;8552;48.120;-1.456;2022-12-18T12:41:25;56.47;;;29.13;;
16870;SDS011;8552;48.120;-1.456;2022-12-18T12:46:57;58.47;;;32.00;;
16870;SDS011;8552;48.120;-1.456;2022-12-18T12:49:26;53.53;;;27.20;;
16870;SDS011;8552;48.120;-1.456;2022-12-18T12:51:57;60.10;;;31.70;;
16870;SDS011;8552;48.120;-1.456;2022-12-18T12:54:25;54.10;;;28.03;;
16870;SDS011;8552;48.120;-1.456;2022-12-18T12:56:59;58.43;;;30.43;;
16870;SDS011;8552;48.120;-1.456;2022-12-18T13:02:14;62.80;;;30.77;;
16870;SDS011;8552;48.120;-1.456;2022-12-18T13:07:20;54.70;;;29.00;;
16870;SDS011;8552;48.120;-1.456;2022-12-18T13:12:33;55.77;;;29.43;;
16870;SDS011;8552;48.120;-1.456;2022-12-18T13:15:22;59.70;;;28.83;;
16870;SDS011;8552;48.120;-1.456;2022-12-18T13:17:49;64.83;;;32.03;;
16870;SDS011;8552;48.120;-1.456;2022-12-18T13:20:15;58.97;;;28.63;;
16870;SDS011;8552;48.120;-1.456;2022-12-18T13:22:43;60.40;;;30.37;;
16870;SDS011;8552;48.120;-1.456;2022-12-18T13:28:04;56.40;;;31.47;;
16870;SDS011;8552;48.120;-1.456;2022-12-18T13:38:21;70.70;;;35.17;;
16870;SDS011;8552;48.120;-1.456;2022-12-18T13:48:28;63.33;;;31.30;;
16870;SDS011;8552;48.120;-1.456;2022-12-18T13:51:05;64.43;;;33.23;;
16870;SDS011;8552;48.120;-1.456;2022-12-18T13:53:34;67.07;;;31.87;;
16870;SDS011;8552;48.120;-1.456;2022-12-18T13:56:01;61.30;;;32.07;;
16870;SDS011;8552;48.120;-1.456;2022-12-18T13:58:28;59.30;;;31.97;;
16870;SDS011;8552;48.120;-1.456;2022-12-18T14:00:54;61.00;;;30.73;;
16870;SDS011;8552;48.120;-1.456;2022-12-18T14:03:21;60.00;;;31.60;;
16870;SDS011;8552;48.120;-1.456;2022-12-18T14:06:01;58.87;;;31.23;;
16870;SDS011;8552;48.120;-1.456;2022-12-18T14:08:33;64.97;;;31.00;;
16870;SDS011;8552;48.120;-1.456;2022-12-18T14:11:01;56.67;;;30.80;;
16870;SDS011;8552;48.120;-1.456;2022-12-18T14:13:29;59.57;;;32.57;;
16870;SDS011;8552;48.120;-1.456;2022-12-18T14:15:56;62.40;;;32.23;;
16870;SDS011;8552;48.120;-1.456;2022-12-18T14:20:57;64.20;;;31.67;;
16870;SDS011;8552;48.120;-1.456;2022-12-18T14:23:25;60.40;;;31.50;;
16870;SDS011;8552;48.120;-1.456;2022-12-18T14:25:51;68.27;;;32.93;;
16870;SDS011;8552;48.120;-1.456;2022-12-18T14:28:17;65.50;;;34.43;;
16870;SDS011;8552;48.120;-1.456;2022-12-18T14:30:44;66.70;;;34.07;;
16870;SDS011;8552;48.120;-1.456;2022-12-18T14:33:12;58.53;;;30.57;;
16870;SDS011;8552;48.120;-1.456;2022-12-18T14:35:40;57.20;;;30.67;;
16870;SDS011;8552;48.120;-1.456;2022-12-18T14:40:36;65.67;;;32.77;;
16870;SDS011;8552;48.120;-1.456;2022-12-18T14:43:02;66.43;;;33.93;;
16870;SDS011;8552;48.120;-1.456;2022-12-18T14:45:38;69.53;;;35.13;;
16870;SDS011;8552;48.120;-1.456;2022-12-18T14:48:19;71.40;;;33.00;;
16870;SDS011;8552;48.120;-1.456;2022-12-18T14:50:53;61.37;;;33.17;;
16870;SDS011;8552;48.120;-1.456;2022-12-18T14:53:22;67.83;;;33.87;;
16870;SDS011;8552;48.120;-1.456;2022-12-18T14:55:49;71.23;;;35.60;;
16870;SDS011;8552;48.120;-1.456;2022-12-18T14:58:15;57.93;;;32.47;;
16870;SDS011;8552;48.120;-1.456;2022-12-18T15:00:41;59.30;;;33.07;;
16870;SDS011;8552;48.120;-1.456;2022-12-18T15:03:08;60.57;;;33.83;;
16870;SDS011;8552;48.120;-1.456;2022-12-18T15:05:34;61.33;;;32.67;;
16870;SDS011;8552;48.120;-1.456;2022-12-18T15:08:01;58.43;;;32.30;;
16870;SDS011;8552;48.120;-1.456;2022-12-18T15:10:31;63.60;;;34.83;;
16870;SDS011;8552;48.120;-1.456;2022-12-18T15:20:41;63.80;;;33.97;;
16870;SDS011;8552;48.120;-1.456;2022-12-18T15:23:14;58.10;;;34.57;;
16870;SDS011;8552;48.120;-1.456;2022-12-18T15:25:40;63.87;;;37.90;;
16870;SDS011;8552;48.120;-1.456;2022-12-18T15:28:26;59.33;;;33.77;;
16870;SDS011;8552;48.120;-1.456;2022-12-18T15:31:03;69.13;;;35.07;;
16870;SDS011;8552;48.120;-1.456;2022-12-18T15:33:30;61.57;;;34.10;;
16870;SDS011;8552;48.120;-1.456;2022-12-18T15:35:59;60.00;;;33.53;;
16870;SDS011;8552;48.120;-1.456;2022-12-18T15:38:26;63.97;;;35.77;;
16870;SDS011;8552;48.120;-1.456;2022-12-18T15:40:52;69.57;;;36.37;;
16870;SDS011;8552;48.120;-1.456;2022-12-18T15:43:22;65.70;;;35.07;;
16870;SDS011;8552;48.120;-1.456;2022-12-18T15:46:02;65.53;;;34.77;;
16870;SDS011;8552;48.120;-1.456;2022-12-18T15:48:28;64.90;;;35.57;;
16870;SDS011;8552;48.120;-1.456;2022-12-18T15:50:55;65.23;;;34.77;;
16870;SDS011;8552;48.120;-1.456;2022-12-18T15:53:23;75.30;;;35.93;;
16870;SDS011;8552;48.120;-1.456;2022-12-18T15:55:49;67.53;;;34.73;;
16870;SDS011;8552;48.120;-1.456;2022-12-18T15:58:34;63.53;;;35.83;;
16870;SDS011;8552;48.120;-1.456;2022-12-18T16:01:00;72.10;;;36.83;;
16870;SDS011;8552;48.120;-1.456;2022-12-18T16:03:26;69.40;;;38.47;;
16870;SDS011;8552;48.120;-1.456;2022-12-18T16:05:53;111.83;;;49.77;;
16870;SDS011;8552;48.120;-1.456;2022-12-18T16:08:19;73.17;;;41.60;;
16870;SDS011;8552;48.120;-1.456;2022-12-18T16:10:45;67.30;;;34.17;;
16870;SDS011;8552;48.120;-1.456;2022-12-18T16:13:15;74.43;;;38.10;;
16870;SDS011;8552;48.120;-1.456;2022-12-18T16:15:42;69.80;;;40.20;;
16870;SDS011;8552;48.120;-1.456;2022-12-18T16:18:08;62.40;;;35.37;;
16870;SDS011;8552;48.120;-1.456;2022-12-18T16:20:34;60.23;;;34.60;;
16870;SDS011;8552;48.120;-1.456;2022-12-18T16:23:00;76.90;;;36.67;;
16870;SDS011;8552;48.120;-1.456;2022-12-18T16:25:27;69.33;;;34.83;;
16870;SDS011;8552;48.120;-1.456;2022-12-18T16:27:53;64.37;;;35.80;;
16870;SDS011;8552;48.120;-1.456;2022-12-18T16:30:22;63.87;;;35.27;;
16870;SDS011;8552;48.120;-1.456;2022-12-18T16:32:49;62.53;;;32.07;;
16870;SDS011;8552;48.120;-1.456;2022-12-18T16:35:15;62.80;;;30.07;;
16870;SDS011;8552;48.120;-1.456;2022-12-18T16:37:42;53.93;;;29.03;;